Impacts METAR Board INFO
IDs:

KLAS - Las Vegas/McCarran I, NV, US

Updated at: 1409 UTC 24 Feb 2018
Potential Impact None Slight Moderate High
Time24/02Z 24/03Z 24/04Z 24/05Z 24/06Z 24/07Z 24/08Z 24/09Z 24/10Z 24/11Z 24/12Z 24/13Z 24/14Z
VIS10 10 10 10 10 10 10 10 10 10 10 10 10
CIG-- -- -- -- -- -- -- -- -- -- -- -- --
CoverSCTFEWFEWCLRCLRCLRCLRCLRCLRCLRCLRCLRCLR
FltCatVFRVFRVFRVFRVFRVFRVFRVFRVFRVFRVFRVFRVFR
WX--------------------------
WDir32031032033033035033034035020100160300
WSpd12 12 10 8 13 11 9 9 8 7 3 4 5
WGst-- -- -- -- -- -- -- -- -- -- -- -- --
Raw hourly METARs
KLAS 240156Z 32012KT 10SM FEW040 FEW075 SCT095 07/M09 A3013 RMK AO2 SLP207 T00721089
KLAS 240256Z 31012KT 10SM FEW075 FEW095 07/M09 A3014 RMK AO2 SLP212 T00721094 51021
KLAS 240356Z 32010KT 10SM FEW075 FEW095 07/M12 A3017 RMK AO2 SLP220 T00721117
KLAS 240456Z 33008KT 10SM CLR 07/M13 A3020 RMK AO2 SLP230 T00671128
KLAS 240556Z 33013KT 10SM CLR 06/M13 A3023 RMK AO2 SLP238 T00611133 10089 20061 51026
KLAS 240656Z 35011KT 10SM CLR 06/M14 A3025 RMK AO2 SLP245 T00561139
KLAS 240756Z 33009KT 10SM CLR 05/M14 A3025 RMK AO2 SLP246 T00501139 401000044
KLAS 240856Z 34009KT 10SM CLR 05/M14 A3026 RMK AO2 SLP253 T00501139 51011
KLAS 240956Z 35008KT 10SM CLR 04/M14 A3026 RMK AO2 SLP252 T00391139
KLAS 241056Z 02007KT 10SM CLR 03/M14 A3027 RMK AO2 SLP255 T00281144
KLAS 241156Z 10003KT 10SM CLR 02/M14 A3027 RMK AO2 SLP255 T00221144 10061 20022 53001
KLAS 241256Z 16004KT 10SM CLR 01/M13 A3027 RMK AO2 SLP258 T00061128
KLAS 241356Z 30005KT 10SM CLR 01/M14 A3029 RMK AO2 SLP264 T00061139